createdAt,value
2018-05-01T00:00:13.977Z,0.00
2018-05-01T00:01:13.986Z,0.00
2018-05-01T00:03:06.820Z,0.00
2018-05-01T00:04:06.774Z,0.00
2018-05-01T00:06:00.743Z,0.00
2018-05-01T00:07:00.138Z,0.00
2018-05-01T00:08:53.748Z,0.00
2018-05-01T00:09:53.500Z,0.00
2018-05-01T00:11:47.119Z,0.00
2018-05-01T00:12:46.850Z,0.00
2018-05-01T00:14:40.212Z,0.00
2018-05-01T00:15:40.190Z,0.00
2018-05-01T00:17:33.585Z,0.00
2018-05-01T00:18:34.135Z,0.00
2018-05-01T00:20:26.945Z,0.00
2018-05-01T00:21:27.486Z,0.00
2018-05-01T00:23:20.569Z,0.00
2018-05-01T00:24:20.275Z,0.00
2018-05-01T00:26:13.727Z,0.00
2018-05-01T00:27:14.199Z,0.00
2018-05-01T00:29:07.885Z,0.00
2018-05-01T00:30:06.778Z,0.00
2018-05-01T00:32:00.176Z,0.00
2018-05-01T00:33:00.331Z,0.00
2018-05-01T00:34:54.819Z,0.00
2018-05-01T00:35:55.060Z,0.00
2018-05-01T00:37:47.466Z,0.00
2018-05-01T00:38:47.366Z,0.00
2018-05-01T00:40:41.820Z,0.00
2018-05-01T00:41:41.284Z,0.00
2018-05-01T00:43:34.374Z,0.00
2018-05-01T00:44:34.081Z,0.00
2018-05-01T00:46:28.695Z,0.00
2018-05-01T00:47:27.443Z,0.00
2018-05-01T00:49:21.090Z,0.00
2018-05-01T00:50:20.805Z,0.00
2018-05-01T00:52:14.450Z,0.00
2018-05-01T00:53:14.197Z,0.00
2018-05-01T00:55:07.789Z,0.00
2018-05-01T00:56:10.098Z,0.00
2018-05-01T00:58:00.998Z,0.00
2018-05-01T00:59:00.408Z,0.00
2018-05-01T01:00:54.314Z,0.00
2018-05-01T01:01:53.733Z,0.00
2018-05-01T01:03:47.141Z,0.00
2018-05-01T01:04:47.680Z,0.00
2018-05-01T01:06:40.528Z,0.00
2018-05-01T01:07:40.465Z,0.00
2018-05-01T01:09:34.105Z,0.00
2018-05-01T01:10:33.815Z,0.00
2018-05-01T01:12:28.371Z,0.00
2018-05-01T01:13:28.205Z,0.00
2018-05-01T01:15:21.787Z,0.00
2018-05-01T01:16:21.534Z,0.00
2018-05-01T01:18:15.154Z,0.00
2018-05-01T01:19:14.891Z,0.00
2018-05-01T01:21:08.036Z,0.00
2018-05-01T01:22:07.775Z,0.00
2018-05-01T01:24:01.412Z,0.00
2018-05-01T01:25:01.692Z,0.00
2018-05-01T01:26:54.249Z,0.00
2018-05-01T01:27:53.992Z,0.00
2018-05-01T01:29:47.655Z,0.00
2018-05-01T01:30:47.327Z,0.00
2018-05-01T01:32:40.755Z,0.00
2018-05-01T01:33:40.703Z,0.00
2018-05-01T01:35:34.186Z,0.00
2018-05-01T01:36:34.065Z,0.00
2018-05-01T01:38:27.457Z,0.00
2018-05-01T01:39:27.428Z,0.00
2018-05-01T01:41:21.826Z,0.00
2018-05-01T01:42:21.774Z,0.00
2018-05-01T01:44:15.965Z,0.00
2018-05-01T01:45:15.183Z,0.00
2018-05-01T01:47:08.579Z,0.00
2018-05-01T01:48:08.518Z,0.00
2018-05-01T01:50:02.226Z,0.00
2018-05-01T01:51:01.910Z,0.00
2018-05-01T01:52:55.589Z,0.00
2018-05-01T01:53:55.251Z,0.00
2018-05-01T01:55:48.312Z,0.00
2018-05-01T01:56:48.116Z,0.00
2018-05-01T01:58:41.524Z,0.00
2018-05-01T01:59:41.481Z,0.00
2018-05-01T02:01:34.402Z,0.00
2018-05-01T02:02:34.336Z,0.00
2018-05-01T02:04:28.016Z,0.00
2018-05-01T02:05:27.707Z,0.00
2018-05-01T02:07:22.360Z,0.00
2018-05-01T02:08:22.636Z,0.00
2018-05-01T02:10:15.706Z,0.00
2018-05-01T02:11:15.407Z,0.00
2018-05-01T02:13:08.807Z,0.00
2018-05-01T02:14:08.763Z,0.00
2018-05-01T02:16:02.486Z,0.00
2018-05-01T02:17:02.148Z,0.00
2018-05-01T02:18:58.286Z,0.00
2018-05-01T02:19:58.005Z,0.00
2018-05-01T02:21:51.264Z,0.00
2018-05-01T02:22:50.892Z,0.00
2018-05-01T02:24:46.002Z,0.00
2018-05-01T02:25:46.797Z,0.00
2018-05-01T02:27:37.868Z,0.00
2018-05-01T02:28:37.581Z,0.00
2018-05-01T02:30:31.959Z,0.00
2018-05-01T02:31:32.514Z,0.00
2018-05-01T02:33:26.394Z,0.00
2018-05-01T02:35:39.997Z,0.00
2018-05-01T02:36:40.227Z,0.00
2018-05-01T02:38:33.119Z,0.00
2018-05-01T02:39:33.031Z,0.00
2018-05-01T02:41:26.399Z,0.00
2018-05-01T02:43:39.354Z,0.00
2018-05-01T02:44:39.258Z,0.00
2018-05-01T02:46:34.370Z,0.00
2018-05-01T02:47:33.621Z,0.00
2018-05-01T02:49:27.011Z,0.00
2018-05-01T02:50:26.975Z,0.00
2018-05-01T02:52:20.738Z,0.00
2018-05-01T02:53:19.840Z,0.00
2018-05-01T02:55:13.571Z,0.00
2018-05-01T02:56:13.185Z,0.00
2018-05-01T02:58:06.563Z,0.00
2018-05-01T02:59:06.543Z,0.00
2018-05-01T03:01:00.110Z,0.00
2018-05-01T03:02:00.475Z,0.00
2018-05-01T03:03:53.487Z,0.00
2018-05-01T03:04:53.259Z,0.00
2018-05-01T03:06:46.669Z,0.00
2018-05-01T03:07:46.611Z,0.00
2018-05-01T03:09:40.551Z,0.00
2018-05-01T03:10:40.545Z,0.00
2018-05-01T03:12:33.668Z,0.00
2018-05-01T03:13:33.325Z,0.00
2018-05-01T03:15:29.504Z,0.00
2018-05-01T03:16:30.268Z,0.00
2018-05-01T03:18:21.089Z,0.00
2018-05-01T03:19:21.038Z,0.00
2018-05-01T03:21:15.198Z,0.00
2018-05-01T03:22:14.397Z,0.00
2018-05-01T03:24:07.804Z,0.00
2018-05-01T03:25:07.760Z,0.00
2018-05-01T03:27:01.191Z,0.00
2018-05-01T03:28:01.157Z,0.00
2018-05-01T03:29:54.774Z,0.00
2018-05-01T03:30:54.524Z,0.00
2018-05-01T03:32:47.940Z,0.00
2018-05-01T03:33:47.871Z,0.00
2018-05-01T03:35:41.424Z,0.00
2018-05-01T03:36:41.256Z,0.00
2018-05-01T03:38:34.622Z,0.00
2018-05-01T03:39:35.166Z,0.00
2018-05-01T03:41:30.752Z,4.00
2018-05-01T03:42:30.505Z,0.00
2018-05-01T03:44:24.271Z,4.00
2018-05-01T03:45:24.435Z,0.00
2018-05-01T03:47:18.537Z,4.00
2018-05-01T03:48:18.189Z,4.00
2018-05-01T03:50:11.894Z,12.00
2018-05-01T03:51:11.556Z,8.00
2018-05-01T03:53:04.958Z,12.00
2018-05-01T03:54:04.922Z,12.00
2018-05-01T03:55:58.385Z,20.00
2018-05-01T03:56:58.289Z,24.00
2018-05-01T03:58:51.863Z,28.00
2018-05-01T03:59:51.643Z,36.00
2018-05-01T04:01:45.090Z,44.00
2018-05-01T04:02:45.011Z,48.00
2018-05-01T04:04:38.442Z,48.00
2018-05-01T04:05:38.379Z,52.00
2018-05-01T04:07:32.820Z,56.00
2018-05-01T04:08:31.775Z,64.00
2018-05-01T04:10:25.113Z,84.00
2018-05-01T04:11:25.098Z,88.00
2018-05-01T04:13:19.115Z,104.00
2018-05-01T04:14:18.443Z,112.00
2018-05-01T04:16:12.080Z,148.00
2018-05-01T04:17:11.824Z,156.00
2018-05-01T04:19:05.208Z,188.00
2018-05-01T04:20:05.180Z,204.00
2018-05-01T04:21:59.093Z,232.00
2018-05-01T04:22:58.378Z,240.00
2018-05-01T04:24:51.934Z,260.00
2018-05-01T04:25:51.719Z,268.00
2018-05-01T04:27:44.681Z,296.00
2018-05-01T04:28:45.121Z,316.00
2018-05-01T04:30:38.181Z,344.00
2018-05-01T04:31:37.975Z,360.00
2018-05-01T04:33:32.164Z,388.00
2018-05-01T04:34:30.795Z,408.00
2018-05-01T04:36:27.522Z,448.00
2018-05-01T04:37:26.664Z,468.00
2018-05-01T04:39:21.064Z,500.00
2018-05-01T04:40:21.033Z,512.00
2018-05-01T04:42:14.721Z,516.00
2018-05-01T04:43:14.383Z,508.00
2018-05-01T04:45:14.788Z,492.00
2018-05-01T04:46:14.741Z,492.00
2018-05-01T04:48:08.373Z,484.00
2018-05-01T04:49:08.106Z,476.00
2018-05-01T04:51:01.525Z,468.00
2018-05-01T04:52:01.448Z,468.00
2018-05-01T04:53:54.885Z,500.00
2018-05-01T04:54:54.864Z,508.00
2018-05-01T04:56:48.316Z,548.00
2018-05-01T04:57:48.192Z,564.00
2018-05-01T04:59:43.174Z,572.00
2018-05-01T05:00:42.579Z,556.00
2018-05-01T05:02:39.490Z,540.00
2018-05-01T05:03:38.475Z,556.00
2018-05-01T05:05:29.688Z,628.00
2018-05-01T05:06:29.274Z,668.00
2018-05-01T05:08:23.014Z,728.00
2018-05-01T05:09:22.773Z,744.00
2018-05-01T05:11:15.615Z,772.00
2018-05-01T05:12:15.045Z,796.00
2018-05-01T05:14:08.454Z,820.00
2018-05-01T05:15:10.951Z,832.00
2018-05-01T05:17:01.836Z,852.00
2018-05-01T05:18:02.326Z,856.00
2018-05-01T05:19:55.135Z,852.00
2018-05-01T05:20:54.808Z,876.00
2018-05-01T05:22:48.362Z,912.00
2018-05-01T05:23:48.058Z,928.00
2018-05-01T05:25:42.522Z,948.00
2018-05-01T05:26:42.414Z,964.00
2018-05-01T05:28:36.104Z,1024.00
2018-05-01T05:29:35.763Z,1040.00
2018-05-01T05:31:29.373Z,1064.00
2018-05-01T05:33:59.126Z,1088.00
2018-05-01T05:34:58.484Z,1120.00
2018-05-01T05:37:06.150Z,1260.00
2018-05-01T05:38:05.372Z,1336.00
2018-05-01T05:39:58.859Z,1440.00
2018-05-01T05:40:58.552Z,1504.00
2018-05-01T05:42:51.867Z,1552.00
2018-05-01T05:43:51.494Z,1544.00
2018-05-01T05:45:58.934Z,1624.00
2018-05-01T05:46:58.889Z,1620.00
2018-05-01T05:48:52.741Z,1444.00
2018-05-01T05:49:52.817Z,1412.00
2018-05-01T05:51:45.342Z,1492.00
2018-05-01T05:52:44.888Z,1528.00
2018-05-01T05:54:57.755Z,1540.00
2018-05-01T05:55:57.401Z,1588.00
2018-05-01T05:57:51.238Z,1820.00
2018-05-01T05:58:50.857Z,2004.00
2018-05-01T06:00:44.461Z,2288.00
2018-05-01T06:01:44.059Z,2380.00
2018-05-01T06:03:37.870Z,2520.00
2018-05-01T06:04:37.444Z,2592.00
2018-05-01T06:06:30.882Z,2632.00
2018-05-01T06:07:30.781Z,2644.00
2018-05-01T06:09:25.859Z,2736.00
2018-05-01T06:10:26.736Z,2940.00
2018-05-01T06:12:16.875Z,3356.00
2018-05-01T06:13:16.802Z,3432.00
2018-05-01T06:15:11.944Z,3432.00
2018-05-01T06:16:10.318Z,3436.00
2018-05-01T06:18:13.794Z,3452.00
2018-05-01T06:19:03.015Z,3444.00
2018-05-01T06:20:56.388Z,3504.00
2018-05-01T06:21:56.441Z,3536.00
2018-05-01T06:23:50.490Z,3568.00
2018-05-01T06:24:49.751Z,3556.00
2018-05-01T06:26:43.539Z,3508.00
2018-05-01T06:27:43.123Z,3432.00
2018-05-01T06:29:36.573Z,3296.00
2018-05-01T06:30:36.484Z,3252.00
2018-05-01T06:32:30.277Z,3172.00
2018-05-01T06:33:32.419Z,3124.00
2018-05-01T06:35:24.425Z,3032.00
2018-05-01T06:36:23.312Z,3000.00
2018-05-01T06:38:18.320Z,2952.00
2018-05-01T06:39:17.283Z,2884.00
2018-05-01T06:41:10.175Z,2788.00
2018-05-01T06:42:10.090Z,2836.00
2018-05-01T06:44:03.327Z,2840.00
2018-05-01T06:45:02.974Z,2860.00
2018-05-01T06:46:57.424Z,2960.00
2018-05-01T06:47:57.337Z,3004.00
2018-05-01T06:49:50.712Z,3108.00
2018-05-01T06:50:50.693Z,3136.00
2018-05-01T06:52:43.620Z,3256.00
2018-05-01T06:53:43.540Z,3308.00
2018-05-01T06:55:37.055Z,3476.00
2018-05-01T06:56:36.896Z,3600.00
2018-05-01T06:58:29.864Z,3944.00
2018-05-01T06:59:29.769Z,4108.00
2018-05-01T07:01:23.330Z,4252.00
2018-05-01T07:02:23.216Z,4272.00
2018-05-01T07:04:16.193Z,4232.00
2018-05-01T07:05:16.080Z,4216.00
2018-05-01T07:07:09.531Z,4216.00
2018-05-01T07:08:08.966Z,4212.00
2018-05-01T07:10:02.086Z,4160.00
2018-05-01T07:11:01.802Z,4148.00
2018-05-01T07:12:58.757Z,4208.00
2018-05-01T07:13:54.691Z,4272.00
2018-05-01T07:15:48.078Z,4352.00
2018-05-01T07:16:48.392Z,4340.00
2018-05-01T07:18:42.059Z,4308.00
2018-05-01T07:19:41.637Z,4304.00
2018-05-01T07:21:35.335Z,4416.00
2018-05-01T07:22:34.790Z,4532.00
2018-05-01T07:24:27.683Z,4544.00
2018-05-01T07:25:27.631Z,4488.00
2018-05-01T07:27:20.764Z,4452.00
2018-05-01T07:28:21.083Z,4448.00
2018-05-01T07:30:13.624Z,4480.00
2018-05-01T07:31:14.449Z,4492.00
2018-05-01T07:33:07.288Z,4524.00
2018-05-01T07:34:06.280Z,4568.00
2018-05-01T07:35:59.624Z,4656.00
2018-05-01T07:36:59.604Z,4724.00
2018-05-01T07:38:52.502Z,4884.00
2018-05-01T07:39:52.582Z,4936.00
2018-05-01T07:41:45.885Z,5012.00
2018-05-01T07:42:45.851Z,5116.00
2018-05-01T07:44:39.330Z,5464.00
2018-05-01T07:45:39.233Z,5632.00
2018-05-01T07:47:33.904Z,5900.00
2018-05-01T07:48:32.131Z,5984.00
2018-05-01T07:50:24.983Z,6100.00
2018-05-01T07:51:24.984Z,6200.00
2018-05-01T07:53:19.519Z,6356.00
2018-05-01T07:54:19.381Z,6300.00
2018-05-01T07:56:12.911Z,6196.00
2018-05-01T07:57:12.764Z,6196.00
2018-05-01T07:59:05.624Z,6060.00
2018-05-01T08:00:05.580Z,5916.00
2018-05-01T08:01:58.618Z,5624.00
2018-05-01T08:02:58.451Z,5504.00
2018-05-01T08:04:51.353Z,5308.00
2018-05-01T08:05:51.339Z,5296.00
2018-05-01T08:07:44.299Z,5504.00
2018-05-01T08:08:44.764Z,5596.00
2018-05-01T08:10:37.839Z,5780.00
2018-05-01T08:11:37.618Z,5800.00
2018-05-01T08:13:30.988Z,5940.00
2018-05-01T08:14:30.971Z,5740.00
2018-05-01T08:16:23.999Z,5980.00
2018-05-01T08:17:23.832Z,5872.00
2018-05-01T08:19:17.287Z,5564.00
2018-05-01T08:20:17.205Z,5240.00
2018-05-01T08:22:10.657Z,4748.00
2018-05-01T08:23:10.073Z,4632.00
2018-05-01T08:25:03.621Z,4428.00
2018-05-01T08:26:03.452Z,4336.00
2018-05-01T08:27:56.915Z,4108.00
2018-05-01T08:28:56.811Z,4200.00
2018-05-01T08:30:50.217Z,3972.00
2018-05-01T08:31:50.218Z,3968.00
2018-05-01T08:33:44.127Z,3868.00
2018-05-01T08:34:43.762Z,3840.00
2018-05-01T08:36:36.685Z,3520.00
2018-05-01T08:37:36.718Z,3640.00
2018-05-01T08:39:29.535Z,3648.00
2018-05-01T08:40:29.499Z,3384.00
2018-05-01T08:42:22.394Z,3032.00
2018-05-01T08:43:22.363Z,2988.00
2018-05-01T08:45:15.322Z,2848.00
2018-05-01T08:46:15.232Z,2808.00
2018-05-01T08:48:08.129Z,2740.00
2018-05-01T08:49:08.112Z,2832.00
2018-05-01T08:51:01.017Z,2936.00
2018-05-01T08:52:00.988Z,2812.00
2018-05-01T08:53:53.871Z,2844.00
2018-05-01T08:54:53.854Z,2892.00
2018-05-01T08:56:47.240Z,2884.00
2018-05-01T08:57:47.205Z,2816.00
2018-05-01T08:59:40.111Z,2988.00
2018-05-01T09:00:40.085Z,3096.00
2018-05-01T09:02:33.019Z,3572.00
2018-05-01T09:03:32.951Z,3512.00
2018-05-01T09:05:41.884Z,3472.00
2018-05-01T09:06:27.348Z,3464.00
2018-05-01T09:08:21.888Z,4572.00
2018-05-01T09:09:21.739Z,4016.00
2018-05-01T09:11:15.245Z,4960.00
2018-05-01T09:12:15.097Z,4404.00
2018-05-01T09:14:08.016Z,5168.00
2018-05-01T09:15:08.012Z,4668.00
2018-05-01T09:17:01.039Z,4948.00
2018-05-01T09:18:00.988Z,5212.00
2018-05-01T09:19:54.505Z,4476.00
2018-05-01T09:20:54.225Z,4424.00
2018-05-01T09:22:47.126Z,4564.00
2018-05-01T09:23:47.103Z,4804.00
2018-05-01T09:25:40.019Z,4856.00
2018-05-01T09:26:39.990Z,4804.00
2018-05-01T09:28:33.067Z,5552.00
2018-05-01T09:29:32.846Z,4640.00
2018-05-01T09:31:25.763Z,4004.00
2018-05-01T09:32:25.739Z,3880.00
2018-05-01T09:34:18.618Z,4704.00
2018-05-01T09:35:18.607Z,5604.00
2018-05-01T09:37:12.176Z,5000.00
2018-05-01T09:38:11.460Z,4432.00
2018-05-01T09:40:04.431Z,4596.00
2018-05-01T09:41:04.435Z,4184.00
2018-05-01T09:42:57.510Z,4392.00
2018-05-01T09:43:57.241Z,5096.00
2018-05-01T09:45:50.775Z,5164.00
2018-05-01T09:46:50.648Z,4580.00
2018-05-01T09:48:44.050Z,4652.00
2018-05-01T09:49:43.514Z,4640.00
2018-05-01T09:51:38.165Z,5080.00
2018-05-01T09:52:36.866Z,5736.00
2018-05-01T09:54:30.439Z,4564.00
2018-05-01T09:55:30.230Z,3984.00
2018-05-01T09:57:23.722Z,3772.00
2018-05-01T09:58:23.683Z,4652.00
2018-05-01T10:00:16.143Z,5664.00
2018-05-01T10:01:16.000Z,4184.00
2018-05-01T10:03:12.390Z,5600.00
2018-05-01T10:04:12.079Z,6376.00
2018-05-01T10:06:58.005Z,4472.00
2018-05-01T10:07:59.296Z,4044.00
2018-05-01T10:09:50.910Z,5192.00
2018-05-01T10:10:50.996Z,4904.00
2018-05-01T10:12:45.025Z,5068.00
2018-05-01T10:13:43.611Z,4324.00
2018-05-01T10:15:37.922Z,3528.00
2018-05-01T10:16:38.113Z,3660.00
2018-05-01T10:18:31.560Z,3836.00
2018-05-01T10:19:31.511Z,3948.00
2018-05-01T10:21:25.619Z,4352.00
2018-05-01T10:22:23.471Z,4448.00
2018-05-01T10:24:19.473Z,4308.00
2018-05-01T10:25:19.413Z,4872.00
2018-05-01T10:27:12.839Z,4656.00
2018-05-01T10:28:13.467Z,5152.00
2018-05-01T10:30:05.567Z,5540.00
2018-05-01T10:31:05.525Z,6664.00
2018-05-01T10:32:58.833Z,3732.00
2018-05-01T10:33:58.933Z,3172.00
2018-05-01T10:35:52.204Z,2796.00
2018-05-01T10:36:52.175Z,3368.00
2018-05-01T10:38:45.713Z,4588.00
2018-05-01T10:39:45.536Z,4884.00
2018-05-01T10:41:39.042Z,5744.00
2018-05-01T10:42:38.961Z,5828.00
2018-05-01T10:44:32.718Z,6048.00
2018-05-01T10:45:32.341Z,6128.00
2018-05-01T10:47:26.857Z,5536.00
2018-05-01T10:48:25.730Z,5660.00
2018-05-01T10:50:19.636Z,5804.00
2018-05-01T10:51:20.008Z,7104.00
2018-05-01T10:53:12.620Z,7952.00
2018-05-01T10:54:12.271Z,7872.00
2018-05-01T10:56:05.211Z,8108.00
2018-05-01T10:57:08.070Z,8560.00
2018-05-01T10:58:59.791Z,7956.00
2018-05-01T10:59:59.419Z,7360.00
2018-05-01T11:01:52.220Z,7760.00
2018-05-01T11:02:52.173Z,7668.00
2018-05-01T11:05:37.735Z,6788.00
2018-05-01T11:06:38.285Z,7320.00
2018-05-01T11:08:30.403Z,6164.00
2018-05-01T11:09:29.824Z,5260.00
2018-05-01T11:12:19.465Z,5908.00
2018-05-01T11:13:16.666Z,6596.00
2018-05-01T11:15:10.274Z,5900.00
2018-05-01T11:16:11.196Z,6328.00
2018-05-01T11:18:05.413Z,4824.00
2018-05-01T11:19:03.165Z,3900.00
2018-05-01T11:20:56.866Z,4052.00
2018-05-01T11:21:56.555Z,4056.00
2018-05-01T11:23:50.154Z,3232.00
2018-05-01T11:24:50.181Z,3116.00
2018-05-01T11:26:43.926Z,3144.00
2018-05-01T11:27:43.559Z,3708.00
2018-05-01T11:29:36.530Z,2952.00
2018-05-01T11:30:36.156Z,2876.00
2018-05-01T11:32:29.848Z,3648.00
2018-05-01T11:33:30.110Z,4096.00
2018-05-01T11:35:23.547Z,3660.00
2018-05-01T11:36:23.969Z,3972.00
2018-05-01T11:38:16.334Z,4616.00
2018-05-01T11:39:16.598Z,4876.00
2018-05-01T11:41:09.920Z,4572.00
2018-05-01T11:42:09.687Z,4936.00
2018-05-01T11:44:03.291Z,5412.00
2018-05-01T11:45:03.045Z,5112.00
2018-05-01T11:46:56.688Z,5376.00
2018-05-01T11:47:56.375Z,6224.00
2018-05-01T11:49:49.715Z,6708.00
2018-05-01T11:50:51.220Z,5868.00
2018-05-01T11:52:43.033Z,4396.00
2018-05-01T11:54:57.493Z,4196.00
2018-05-01T11:55:55.791Z,4560.00
2018-05-01T11:57:49.666Z,5416.00
2018-05-01T11:58:49.162Z,5344.00
2018-05-01T12:00:43.014Z,4524.00
2018-05-01T12:01:42.999Z,4076.00
2018-05-01T12:03:48.429Z,3584.00
2018-05-01T12:04:47.267Z,3932.00
2018-05-01T12:06:41.064Z,4544.00
2018-05-01T12:07:42.501Z,4624.00
2018-05-01T12:09:34.407Z,3908.00
2018-05-01T12:10:33.985Z,3772.00
2018-05-01T12:12:27.547Z,3620.00
2018-05-01T12:13:27.158Z,3464.00
2018-05-01T12:15:21.017Z,3460.00
2018-05-01T12:16:20.976Z,3992.00
2018-05-01T12:18:15.381Z,3688.00
2018-05-01T12:19:14.268Z,3904.00
2018-05-01T12:21:07.755Z,4084.00
2018-05-01T12:22:07.709Z,4076.00
2018-05-01T12:24:01.185Z,3908.00
2018-05-01T12:25:01.256Z,4044.00
2018-05-01T12:26:54.491Z,5312.00
2018-05-01T12:27:54.154Z,5196.00
2018-05-01T12:29:46.943Z,3968.00
2018-05-01T12:30:46.906Z,4352.00
2018-05-01T12:32:41.217Z,4756.00
2018-05-01T12:33:40.464Z,4720.00
2018-05-01T12:35:33.861Z,5072.00
2018-05-01T12:36:33.871Z,4760.00
2018-05-01T12:38:27.871Z,4004.00
2018-05-01T12:39:28.128Z,3828.00
2018-05-01T12:41:21.524Z,4832.00
2018-05-01T12:42:21.228Z,5036.00
2018-05-01T12:44:14.888Z,4612.00
2018-05-01T12:45:14.866Z,3752.00
2018-05-01T12:47:07.981Z,3144.00
2018-05-01T12:48:08.245Z,4008.00
2018-05-01T12:50:01.628Z,3852.00
2018-05-01T12:51:01.712Z,4296.00
2018-05-01T12:52:54.606Z,2956.00
2018-05-01T12:53:54.549Z,3152.00
2018-05-01T12:55:47.927Z,5332.00
2018-05-01T12:56:47.913Z,4256.00
2018-05-01T12:58:40.947Z,2760.00
2018-05-01T12:59:41.473Z,2544.00
2018-05-01T13:01:34.709Z,2484.00
2018-05-01T13:02:34.284Z,2600.00
2018-05-01T13:04:28.115Z,3300.00
2018-05-01T13:05:27.761Z,4184.00
2018-05-01T13:07:21.457Z,4368.00
2018-05-01T13:08:21.482Z,4008.00
2018-05-01T13:10:17.437Z,4960.00
2018-05-01T13:11:17.345Z,4784.00
2018-05-01T13:13:11.307Z,5292.00
2018-05-01T13:14:10.740Z,4324.00
2018-05-01T13:16:04.202Z,3276.00
2018-05-01T13:17:04.071Z,3120.00
2018-05-01T13:18:59.032Z,3360.00
2018-05-01T13:19:57.654Z,3456.00
2018-05-01T13:21:50.868Z,4912.00
2018-05-01T13:22:50.877Z,5320.00
2018-05-01T13:24:43.870Z,3880.00
2018-05-01T13:25:43.472Z,3728.00
2018-05-01T13:27:36.812Z,4444.00
2018-05-01T13:28:37.349Z,4952.00
2018-05-01T13:30:30.596Z,4288.00
2018-05-01T13:31:30.564Z,3624.00
2018-05-01T13:33:24.012Z,3684.00
2018-05-01T13:34:24.323Z,3940.00
2018-05-01T13:36:17.384Z,3916.00
2018-05-01T13:37:17.074Z,3580.00
2018-05-01T13:39:13.218Z,2808.00
2018-05-01T13:40:13.167Z,2948.00
2018-05-01T13:42:05.714Z,3196.00
2018-05-01T13:43:05.696Z,3776.00
2018-05-01T13:45:03.422Z,4248.00
2018-05-01T13:45:59.035Z,4424.00
2018-05-01T13:47:52.796Z,4848.00
2018-05-01T13:48:52.537Z,5120.00
2018-05-01T13:50:45.434Z,5424.00
2018-05-01T13:51:45.840Z,4808.00
2018-05-01T13:53:38.741Z,3584.00
2018-05-01T13:54:38.646Z,3524.00
2018-05-01T13:56:32.420Z,4400.00
2018-05-01T13:57:32.592Z,4260.00
2018-05-01T13:59:25.312Z,3204.00
2018-05-01T14:00:24.946Z,3120.00
2018-05-01T14:02:18.016Z,2908.00
2018-05-01T14:03:17.794Z,3132.00
2018-05-01T14:05:10.681Z,3792.00
2018-05-01T14:06:10.931Z,3600.00
2018-05-01T14:08:03.784Z,3012.00
2018-05-01T14:09:03.801Z,2852.00
2018-05-01T14:10:58.803Z,2764.00
2018-05-01T14:11:56.924Z,2880.00
2018-05-01T14:13:50.025Z,3656.00
2018-05-01T14:14:50.344Z,4264.00
2018-05-01T14:16:43.455Z,3972.00
2018-05-01T14:17:43.132Z,3340.00
2018-05-01T14:19:36.788Z,2888.00
2018-05-01T14:20:36.509Z,2852.00
2018-05-01T14:22:29.690Z,3352.00
2018-05-01T14:23:29.452Z,3852.00
2018-05-01T14:25:23.115Z,3776.00
2018-05-01T14:26:22.755Z,4040.00
2018-05-01T14:28:15.979Z,5052.00
2018-05-01T14:29:15.928Z,5480.00
2018-05-01T14:31:09.319Z,5812.00
2018-05-01T14:32:09.000Z,5596.00
2018-05-01T14:34:02.671Z,4600.00
2018-05-01T14:35:02.411Z,4536.00
2018-05-01T14:36:57.603Z,4228.00
2018-05-01T14:37:55.747Z,4560.00
2018-05-01T14:39:50.294Z,5144.00
2018-05-01T14:40:49.996Z,5420.00
2018-05-01T14:42:44.365Z,5216.00
2018-05-01T14:43:42.462Z,4640.00
2018-05-01T14:45:36.132Z,4416.00
2018-05-01T14:46:35.841Z,4864.00
2018-05-01T14:48:29.989Z,4784.00
2018-05-01T14:49:29.447Z,4900.00
2018-05-01T14:51:22.955Z,4644.00
2018-05-01T14:52:22.587Z,4460.00
2018-05-01T14:54:16.258Z,4684.00
2018-05-01T14:55:16.105Z,5220.00
2018-05-01T14:57:09.609Z,5448.00
2018-05-01T14:58:09.326Z,5124.00
2018-05-01T15:00:02.225Z,4332.00
2018-05-01T15:01:02.207Z,4180.00
2018-05-01T15:02:55.604Z,4100.00
2018-05-01T15:03:55.561Z,4016.00
2018-05-01T15:05:49.668Z,4076.00
2018-05-01T15:06:48.984Z,4384.00
2018-05-01T15:08:42.117Z,4692.00
2018-05-01T15:09:41.862Z,4464.00
2018-05-01T15:11:35.326Z,3960.00
2018-05-01T15:12:34.746Z,3652.00
2018-05-01T15:14:27.678Z,2908.00
2018-05-01T15:15:27.618Z,2696.00
2018-05-01T15:17:20.619Z,2204.00
2018-05-01T15:18:20.486Z,2192.00
2018-05-01T15:20:13.385Z,2360.00
2018-05-01T15:21:13.360Z,2464.00
2018-05-01T15:23:06.270Z,2636.00
2018-05-01T15:24:06.241Z,2708.00
2018-05-01T15:25:59.153Z,2864.00
2018-05-01T15:26:59.106Z,3204.00
2018-05-01T15:28:52.022Z,3976.00
2018-05-01T15:29:52.006Z,3864.00
2018-05-01T15:31:44.890Z,3380.00
2018-05-01T15:32:44.877Z,3060.00
2018-05-01T15:34:38.258Z,2508.00
2018-05-01T15:35:38.219Z,2268.00
2018-05-01T15:37:31.272Z,2028.00
2018-05-01T15:38:31.100Z,2012.00
2018-05-01T15:40:24.510Z,2236.00
2018-05-01T15:41:24.497Z,2488.00
2018-05-01T15:43:17.565Z,2820.00
2018-05-01T15:44:17.351Z,3140.00
2018-05-01T15:46:10.257Z,3932.00
2018-05-01T15:47:10.232Z,4120.00
2018-05-01T15:49:03.127Z,3668.00
2018-05-01T15:50:03.093Z,3592.00
2018-05-01T15:51:56.028Z,3580.00
2018-05-01T15:52:55.962Z,3656.00
2018-05-01T15:54:48.951Z,3916.00
2018-05-01T15:55:48.842Z,3884.00
2018-05-01T15:57:41.742Z,4092.00
2018-05-01T15:58:41.721Z,4084.00
2018-05-01T16:00:35.187Z,3672.00
2018-05-01T16:01:35.093Z,3592.00
2018-05-01T16:03:28.005Z,3536.00
2018-05-01T16:04:27.967Z,3376.00
2018-05-01T16:06:20.848Z,2968.00
2018-05-01T16:07:20.834Z,2660.00
2018-05-01T16:09:13.724Z,2096.00
2018-05-01T16:10:13.696Z,2004.00
2018-05-01T16:12:07.353Z,2068.00
2018-05-01T16:13:07.633Z,2212.00
2018-05-01T16:15:00.700Z,2924.00
2018-05-01T16:16:00.429Z,3124.00
2018-05-01T16:17:53.419Z,2960.00
2018-05-01T16:18:53.303Z,2728.00
2018-05-01T16:20:46.736Z,2544.00
2018-05-01T16:21:46.688Z,2660.00
2018-05-01T16:23:39.661Z,2504.00
2018-05-01T16:24:39.543Z,2328.00
2018-05-01T16:26:32.440Z,1944.00
2018-05-01T16:27:32.413Z,1740.00
2018-05-01T16:29:25.320Z,1508.00
2018-05-01T16:30:25.282Z,1492.00
2018-05-01T16:32:18.832Z,1732.00
2018-05-01T16:33:18.644Z,1892.00
2018-05-01T16:35:11.578Z,2364.00
2018-05-01T16:36:11.519Z,2576.00
2018-05-01T16:38:04.465Z,2732.00
2018-05-01T16:39:04.393Z,2648.00
2018-05-01T16:40:57.300Z,2428.00
2018-05-01T16:41:57.259Z,2380.00
2018-05-01T16:43:50.154Z,2256.00
2018-05-01T16:44:50.129Z,2152.00
2018-05-01T16:46:43.602Z,2068.00
2018-05-01T16:47:43.508Z,2132.00
2018-05-01T16:49:36.995Z,2092.00
2018-05-01T16:50:36.890Z,2092.00
2018-05-01T16:52:29.890Z,2124.00
2018-05-01T16:53:29.762Z,2160.00
2018-05-01T16:55:22.703Z,2164.00
2018-05-01T16:56:22.642Z,2180.00
2018-05-01T16:58:15.559Z,2132.00
2018-05-01T16:59:15.540Z,2080.00
2018-05-01T17:01:08.433Z,2156.00
2018-05-01T17:02:08.404Z,2236.00
2018-05-01T17:04:01.305Z,2252.00
2018-05-01T17:05:01.272Z,2240.00
2018-05-01T17:06:54.256Z,2100.00
2018-05-01T17:07:54.153Z,1956.00
2018-05-01T17:09:47.131Z,2060.00
2018-05-01T17:10:47.035Z,2212.00
2018-05-01T17:12:40.012Z,2136.00
2018-05-01T17:13:39.913Z,2100.00
2018-05-01T17:15:32.794Z,1728.00
2018-05-01T17:16:32.763Z,1552.00
2018-05-01T17:18:27.028Z,1320.00
2018-05-01T17:19:26.712Z,1272.00
2018-05-01T17:21:19.196Z,1272.00
2018-05-01T17:22:19.017Z,1380.00
2018-05-01T17:24:12.819Z,1668.00
2018-05-01T17:25:13.023Z,1696.00
2018-05-01T17:27:07.209Z,1492.00
2018-05-01T17:28:06.724Z,1316.00
2018-05-01T17:29:59.215Z,1192.00
2018-05-01T17:30:58.623Z,1260.00
2018-05-01T17:32:52.058Z,1488.00
2018-05-01T17:33:52.020Z,1544.00
2018-05-01T17:35:45.598Z,1552.00
2018-05-01T17:36:45.390Z,1536.00
2018-05-01T17:38:38.636Z,1228.00
2018-05-01T17:39:40.849Z,1000.00
2018-05-01T17:41:31.816Z,832.00
2018-05-01T17:42:34.272Z,812.00
2018-05-01T17:44:26.329Z,792.00
2018-05-01T17:45:25.061Z,804.00
2018-05-01T17:47:21.439Z,868.00
2018-05-01T17:48:18.336Z,888.00
2018-05-01T17:50:12.281Z,900.00
2018-05-01T17:51:11.461Z,928.00
2018-05-01T17:53:04.930Z,888.00
2018-05-01T17:54:04.574Z,844.00
2018-05-01T17:55:57.489Z,816.00
2018-05-01T17:56:57.800Z,804.00
2018-05-01T17:58:51.221Z,720.00
2018-05-01T17:59:50.824Z,688.00